Terminal Aerodrome Forecast
Issued by NWS

Home | Current Version | Previous Version | Text Only | Print | Product List | Glossary Off
Versions: 1 2 3 4 5 6 7 8 9 10 11 12 13 14 15 16 17 18 19 20 21

304
FTUS43 KTOP 222325
TAFMHK
TAF
KMHK 222325Z 2300/2324 16012G23KT P6SM SCT050 BKN060
     FM230100 16012KT P6SM SCT050 BKN060
     FM230300 17008KT P6SM SCT025 BKN100 WS010/19035KT
     FM230900 18011KT P6SM BKN025
     FM231100 18012KT P6SM VCTS BKN023 OVC035CB
     FM231500 17012KT P6SM VCTS BKN015CB=

USA.gov is the U.S. government's official web portal to all federal, state and local government web resources and services.